Terminal Aerodrome Forecast
Issued by NWS

Home | Current Version | Previous Version | Graphics & Text | Print | Product List | Glossary On
Versions: 1 2 3 4 5 6 7 8 9 10 11 12 13 14 15
000
FTUS43 KGRB 051700
TAFMTW
TAF
KMTW 051725Z 0518/0618 10007KT P6SM SCT070 OVC120
     FM060000 07006KT P6SM SCT040 OVC070
     FM060300 06004KT P6SM SCT020 OVC035
     FM060800 05004KT 5SM BR BKN012 OVC020 PROB30 0608/0614 4SM
      -SHRA BR
     FM061400 13007KT P6SM SCT020 BKN040=

USA.gov is the U.S. government's official web portal to all federal, state and local government web resources and services.